Weather reports worldwide

Advertisment
Matera, Italy (16314): temperature & dewpoint: 26.10.2020 02:00:00 - 01.11.2020 02:00:00 (CET)Matera, Italy (16314): wind speed: 26.10.2020 02:00:00 - 01.11.2020 02:00:00 (CET)Matera, Italy (16314): wind direction: 26.10.2020 02:00:00 - 01.11.2020 02:00:00 (CET)Matera, Italy (16314): reduced air pressure: 26.10.2020 02:00:00 - 01.11.2020 02:00:00 (CET)Matera, Italy (16314): precipitation: 26.10.2020 02:00:00 - 01.11.2020 02:00:00 (CET)
Date & Time tt [°C] td [°C] ff [km/h] ff [kn] dd ppp [hPa] rr [mm]
01.11.2020 02:00:00 11,9 9,8 18 10 N 1024,6 -
01.11.2020 01:00:00 12,7 10,7 18 10 N 1024,4 0,0
01.11.2020 00:00:00 12,8 9,6 21 11 NNE 1024,3 -
31.10.2020 23:00:00 13,8 9,0 21 11 N 1024,3 -
31.10.2020 22:00:00 14,6 10,0 22 12 N 1024,1 -
31.10.2020 21:00:00 12,3 9,8 21 11 WNW 1024,5 -
31.10.2020 20:00:00 12,9 10,2 15 8 WNW 1024,5 -
31.10.2020 19:00:00 14,2 9,2 8 4 N 1024,6 0,0
31.10.2020 18:00:00 15,5 9,1 4 2 ENE 1024,0 -
31.10.2020 17:00:00 17,8 9,4 4 2 NE 1023,4 -
31.10.2020 16:00:00 19,6 9,7 13 7 NE 1023,2 -
31.10.2020 15:00:00 19,9 8,8 21 11 ENE 1023,2 -
31.10.2020 14:00:00 20,2 9,1 29 16 NE 1023,4 -
31.10.2020 13:00:00 19,7 9,5 31 17 NE 1023,6 0,0
31.10.2020 12:00:00 19,2 8,5 31 17 N 1024,5 -
31.10.2020 11:00:00 17,8 11,3 18 10 NNE 1025,1 -
31.10.2020 10:00:00 16,1 11,8 28 15 NE 1025,4 -
31.10.2020 09:00:00 13,9 11,9 29 16 NE 1026,0 -
31.10.2020 08:00:00 12,7 11,3 24 13 NNE 1026,1 -
31.10.2020 07:00:00 10,9 9,1 22 12 N 1026,2 0,0
31.10.2020 06:00:00 11,7 10,3 24 13 N 1025,7 -
31.10.2020 05:00:00 11,3 10,2 24 13 N 1026,1 -
31.10.2020 04:00:00 12,0 10,9 24 13 N 1026,0 -
31.10.2020 03:00:00 11,8 11,0 18 10 N 1026,1 -
31.10.2020 02:00:00 11,3 10,5 22 12 N 1026,4 -
31.10.2020 01:00:00 11,5 9,7 22 12 N 1026,7 0,0
31.10.2020 00:00:00 12,0 8,8 26 14 N 1026,6 -
30.10.2020 23:00:00 12,0 9,2 24 13 N 1026,4 -
30.10.2020 22:00:00 11,8 10,5 24 13 N 1026,5 -
30.10.2020 21:00:00 11,9 10,5 24 13 N 1026,5 -
30.10.2020 20:00:00 11,9 10,5 24 13 N 1026,4 -
30.10.2020 19:00:00 11,6 10,2 24 13 N 1026,3 0,0
30.10.2020 18:00:00 12,5 10,5 24 13 NE 1025,7 -
30.10.2020 17:00:00 14,3 10,1 29 16 ENE 1025,2 -
30.10.2020 16:00:00 16,5 10,5 37 20 NE 1024,4 -
30.10.2020 15:00:00 17,3 9,6 34 18 NE 1024,1 -
30.10.2020 14:00:00 17,4 10,2 37 20 NE 1024,0 -
30.10.2020 13:00:00 16,8 10,8 42 23 NE 1024,6 0,0
30.10.2020 12:00:00 15,6 11,5 44 24 NE 1025,0 -
30.10.2020 11:00:00 14,6 11,2 44 24 NNE 1025,3 -
30.10.2020 10:00:00 14,6 11,9 35 19 N 1025,1 -
30.10.2020 09:00:00 12,7 11,1 35 19 N 1025,4 -
30.10.2020 08:00:00 11,5 10,4 39 21 N 1025,2 -
30.10.2020 07:00:00 10,7 9,4 35 19 N 1025,0 0,0
30.10.2020 06:00:00 10,3 8,9 28 15 N 1024,5 -
30.10.2020 05:00:00 10,3 9,0 29 16 N 1024,2 -
30.10.2020 04:00:00 11,1 9,2 34 18 N 1023,9 -
30.10.2020 03:00:00 11,3 9,7 35 19 N 1023,7 -
30.10.2020 02:00:00 11,1 9,8 26 14 N 1023,9 -
30.10.2020 01:00:00 11,6 10,2 28 15 N 1023,8 0,0
30.10.2020 00:00:00 11,2 9,8 26 14 N 1023,8 -
29.10.2020 23:00:00 11,6 9,3 29 16 N 1023,5 -
29.10.2020 22:00:00 12,5 9,3 28 15 N 1023,2 -
29.10.2020 21:00:00 12,5 8,9 26 14 N 1023,2 -
29.10.2020 20:00:00 12,6 8,2 24 13 N 1022,7 -
29.10.2020 19:00:00 13,1 7,5 18 10 N 1022,6 0,0
29.10.2020 18:00:00 13,4 8,6 13 7 NNE 1022,1 -
29.10.2020 17:00:00 14,6 9,4 28 15 NE 1021,2 -
29.10.2020 16:00:00 16,3 10,6 31 17 NE 1020,6 -
29.10.2020 15:00:00 17,3 9,4 37 20 N 1019,9 -
29.10.2020 14:00:00 17,2 8,5 28 15 N 1019,6 -
29.10.2020 13:00:00 17,2 8,5 37 20 N 1019,7 0,0
29.10.2020 12:00:00 16,7 8,1 35 19 N 1019,7 -
29.10.2020 11:00:00 15,8 9,4 35 19 N 1020,2 -
29.10.2020 10:00:00 14,6 9,8 46 25 N 1020,7 -
29.10.2020 09:00:00 13,1 9,1 39 21 N 1020,9 -
29.10.2020 08:00:00 11,7 8,5 29 16 N 1020,8 -
29.10.2020 07:00:00 10,1 7,5 34 18 N 1020,6 0,0
29.10.2020 06:00:00 9,8 7,4 34 18 N 1020,4 -
29.10.2020 05:00:00 10,1 8,5 34 18 N 1020,1 -
29.10.2020 04:00:00 10,3 9,4 42 23 N 1019,7 -
29.10.2020 03:00:00 10,5 9,1 44 24 N 1019,5 -
29.10.2020 02:00:00 10,1 9,3 37 20 N 1019,6 -
29.10.2020 01:00:00 10,1 10,1 44 24 N 1019,6 0,0
29.10.2020 00:00:00 10,1 10,1 37 20 N 1019,6 -
28.10.2020 23:00:00 10,6 10,6 46 25 N 1019,5 -
28.10.2020 22:00:00 10,9 10,9 55 30 N 1019,5 -
28.10.2020 21:00:00 11,2 10,6 50 27 N 1019,4 -
28.10.2020 20:00:00 11,4 10,9 46 25 N 1019,0 -
28.10.2020 19:00:00 12,0 12,0 41 22 N 1018,4 0,0
28.10.2020 18:00:00 12,4 12,4 31 17 N 1017,7 -
28.10.2020 17:00:00 13,2 12,8 42 23 N 1016,9 -
28.10.2020 16:00:00 14,0 13,9 37 20 N 1016,3 -
28.10.2020 15:00:00 14,5 13,0 52 28 NNE 1016,0 -
28.10.2020 14:00:00 15,6 13,6 50 27 NE 1015,4 -
28.10.2020 13:00:00 15,3 13,4 50 27 NNE 1015,6 -
28.10.2020 12:00:00 15,2 13,7 48 26 NE 1015,5 -
28.10.2020 11:00:00 15,2 13,7 54 29 NNE 1015,4 -
28.10.2020 10:00:00 14,1 14,0 46 25 NNE 1015,6 -
28.10.2020 09:00:00 12,0 12,0 42 23 N 1015,6 -
28.10.2020 08:00:00 11,2 11,2 39 21 N 1015,3 -
28.10.2020 07:00:00 11,0 11,0 35 19 N 1014,6 -
28.10.2020 06:00:00 10,6 10,6 35 19 N 1014,2 -
28.10.2020 05:00:00 10,2 10,2 35 19 N 1014,6 -
28.10.2020 04:00:00 10,2 10,2 39 21 NNE 1014,5 -
28.10.2020 03:00:00 10,2 10,2 39 21 N 1014,5 -
28.10.2020 02:00:00 10,5 10,5 35 19 N 1015,1 -
28.10.2020 01:00:00 10,8 10,3 31 17 NE 1014,9 -
28.10.2020 00:00:00 11,8 9,9 28 15 N 1014,8 -
27.10.2020 23:00:00 12,1 10,8 24 13 N 1014,8 -
27.10.2020 22:00:00 12,3 11,7 21 11 NNE 1014,6 -
27.10.2020 21:00:00 12,7 12,4 21 11 NNE 1014,7 -
27.10.2020 20:00:00 12,8 12,3 15 8 N 1014,4 -
27.10.2020 19:00:00 13,0 12,2 21 11 N 1013,6 -
27.10.2020 18:00:00 13,3 12,3 9 5 NNE 1013,9 -
27.10.2020 17:00:00 13,6 12,0 8 4 NW 1013,7 -
27.10.2020 16:00:00 15,5 13,5 22 12 WSW 1013,3 -
27.10.2020 15:00:00 16,2 11,7 24 13 SW 1012,9 -
27.10.2020 14:00:00 18,9 9,9 21 11 SW 1012,1 -
27.10.2020 13:00:00 18,4 9,4 48 26 SW 1012,5 0,0
27.10.2020 12:00:00 18,7 11,2 37 20 SW 1012,7 -
27.10.2020 11:00:00 17,8 11,3 35 19 SW 1013,2 -
27.10.2020 10:00:00 16,9 12,0 31 17 SW 1013,7 -
27.10.2020 09:00:00 15,2 13,5 21 11 SW 1014,3 -
27.10.2020 08:00:00 12,8 10,5 21 11 W 1014,7 -
27.10.2020 07:00:00 11,0 9,1 9 5 WSW 1015,1 0,0
27.10.2020 06:00:00 10,4 7,8 24 13 SW 1014,7 -
27.10.2020 05:00:00 12,1 7,4 9 5 WSW 1014,5 -
27.10.2020 04:00:00 12,9 8,9 8 4 WNW 1014,6 -
27.10.2020 03:00:00 11,4 7,7 13 7 WSW 1015,0 -
27.10.2020 02:00:00 13,2 9,0 4 2 SE 1015,1 -
27.10.2020 01:00:00 13,2 9,6 4 2 NE 1015,4 0,0
27.10.2020 00:00:00 10,2 7,6 13 7 WNW 1016,5 -
26.10.2020 23:00:00 12,0 9,2 16 9 WSW 1016,1 -
26.10.2020 22:00:00 12,7 9,5 29 16 WSW 1016,0 -
26.10.2020 21:00:00 12,9 10,4 28 15 W 1016,3 -
26.10.2020 20:00:00 13,4 13,3 28 15 WSW 1015,8 -
26.10.2020 19:00:00 13,9 13,8 26 14 SW 1015,8 0,0
26.10.2020 18:00:00 14,4 14,0 28 15 SW 1015,7 -
26.10.2020 17:00:00 15,5 14,1 34 18 SW 1015,4 -
26.10.2020 16:00:00 16,8 13,3 39 21 SW 1015,4 -
26.10.2020 15:00:00 17,6 12,2 31 17 SW 1015,4 -
26.10.2020 14:00:00 17,9 11,4 29 16 WSW 1015,5 -
26.10.2020 13:00:00 18,5 11,5 28 15 SW 1016,0 0,0
26.10.2020 12:00:00 17,8 11,1 34 18 WSW 1017,0 -
26.10.2020 11:00:00 17,3 10,8 21 11 SW 1017,5 -
26.10.2020 10:00:00 16,8 11,7 11 6 SW 1017,6 -
26.10.2020 09:00:00 15,3 10,9 11 6 ESE 1018,1 -
26.10.2020 08:00:00 14,7 13,2 2 1 ENE 1018,1 -
26.10.2020 07:00:00 12,3 11,0 4 2 SW 1018,2 0,0
26.10.2020 06:00:00 11,4 9,1 5 3 WSW 1018,4 -
26.10.2020 05:00:00 11,7 10,1 4 2 WNW 1018,5 -
26.10.2020 04:00:00 10,2 7,9 13 7 WNW 1018,9 -
26.10.2020 03:00:00 11,6 10,2 8 4 NNW 1018,6 -
26.10.2020 02:00:00 12,1 12,1 2 1 NNW 1019,1 -

tt = temperature
td = dewpoint
ff = wind speed
dd = wind direction
ppp = reduced air pressure
rr = precipitation

Next stations